This is the latest recevied weather packets stored in our database for station/object N8ESC. If no packets are shown the sender has not sent any weather packets the latest 10 day(s).
| Time | Temp. | Humidity | Pressure | Rain* | Wind** | Luminosity | Snow |
|---|---|---|---|---|---|---|---|
| 1777941317 | 11.67° C | 60% | 993.9 hPa | 0 mm | - | 12 W/m² | - |
| 1777941014 | 11.67° C | 60% | 993.9 hPa | 0 mm | - | 17 W/m² | - |
| 1777940709 | 11.67° C | 64% | 993.8 hPa | 0 mm | - | 17 W/m² | - |
| 1777940408 | 12.22° C | 61% | 993.6 hPa | 0 mm | - | 22 W/m² | - |
| 1777940105 | 12.22° C | 60% | 993.5 hPa | 0 mm | - | 27 W/m² | - |
| 1777939802 | 12.22° C | 60% | 993.6 hPa | 0 mm | - | 28 W/m² | - |
| 1777939500 | 12.78° C | 61% | 993.4 hPa | 0 mm | - | 41 W/m² | - |
| 1777939196 | 12.78° C | 59% | 993.3 hPa | 0 mm | - | 41 W/m² | - |
| 1777938894 | 12.78° C | 60% | 993.1 hPa | 0 mm | - | 37 W/m² | - |
| 1777938590 | 12.78° C | 64% | 993.1 hPa | 0 mm | - | 42 W/m² | - |
| 1777938287 | 13.33° C | 63% | 992.9 hPa | 0 mm | - | 34 W/m² | - |
| 1777937984 | 13.33° C | 64% | 992.7 hPa | 0 mm | - | 42 W/m² | - |
| 1777937679 | 13.33° C | 65% | 992.9 hPa | 0 mm | - | 61 W/m² | - |
| 1777937377 | 13.33° C | 65% | 992.8 hPa | 0 mm | - | 70 W/m² | - |
| 1777937074 | 13.89° C | 64% | 992.5 hPa | 0 mm | - | 70 W/m² | - |
| 1777936771 | 15° C | 60% | 992.7 hPa | 0 mm | - | 76 W/m² | - |
| 1777936467 | 15° C | 59% | 992.7 hPa | 0 mm | - | 85 W/m² | - |
| 1777936163 | 15° C | 59% | 992.5 hPa | 0 mm | - | 105 W/m² | - |
| 1777935860 | 16.11° C | 57% | 992.4 hPa | 0 mm | - | 129 W/m² | - |
| 1777935560 | 16.11° C | 55% | 992.5 hPa | 0 mm | - | 166 W/m² | - |
| 1777935256 | 15.56° C | 58% | 992.5 hPa | 0 mm | - | 191 W/m² | - |
| 1777934954 | 15° C | 58% | 992.3 hPa | 0 mm | - | 132 W/m² | - |
| 1777934650 | 15° C | 58% | 992.4 hPa | 0 mm | - | 138 W/m² | - |
| 1777934347 | 14.44° C | 60% | 992.4 hPa | 0 mm | - | 99 W/m² | - |
| 1777934042 | 13.89° C | 62% | 992.3 hPa | 0 mm | - | 67 W/m² | - |
* Rain latest hour (hover to see other rain measurements)
** Current wind speed in m/s (hover to see current wind gust speed)